Terminal Aerodrome Forecast
Issued by NWS

Home | Current Version | Previous Version | Text Only | Print | Product List | Glossary On
Versions: 1 2 3 4 5 6 7 8 9 10 11 12 13 14 15 16 17 18
000
FTUS41 KBOX 242326
TAFACK
TAF
KACK 242326Z 2500/2524 32010KT P6SM OVC020
     FM250100 32011KT P6SM OVC025
     FM250700 32010KT P6SM BKN045
     FM250900 31009KT P6SM SCT090
     FM251600 27011KT P6SM FEW250=

USA.gov is the U.S. government's official web portal to all federal, state and local government web resources and services.